Time;durP1;ratioP1;P1;durP2;ratioP2;P2;SDS_P1;SDS_P2;PMS_P1;PMS_P2;Temp;Humidity;BMP_temperature;BMP_pressure;BME280_temperature;BME280_humidity;BME280_pressure;Samples;Min_cycle;Max_cycle;Signal;HPM_P1;HPM_P2
2023/08/26 00:00:51;;;;;;;14.98;8.07;;;;;;;;;;6176035;23;20623;-88
2023/08/26 00:03:57;;;;;;;11.80;7.72;;;;;;;;;;6176867;23;20186;-88
2023/08/26 00:07:02;;;;;;;14.55;8.18;;;;;;;;;;6177609;23;20203;-90
2023/08/26 00:13:02;;;;;;;15.32;8.25;;;;;;;;;;6166998;23;20189;-87
2023/08/26 00:16:09;;;;;;;15.18;8.93;;;;;;;;;;6149088;23;20328;-90
2023/08/26 00:19:16;;;;;;;12.63;8.40;;;;;;;;;;6148442;23;20157;-91
2023/08/26 00:22:21;;;;;;;13.18;8.38;;;;;;;;;;6148696;23;20283;-91
2023/08/26 00:25:26;;;;;;;13.68;7.97;;;;;;;;;;6147758;23;20168;-91
2023/08/26 00:28:32;;;;;;;13.23;7.65;;;;;;;;;;6148920;23;20216;-88
2023/08/26 00:31:39;;;;;;;12.63;7.97;;;;;;;;;;6166351;23;20185;-90
2023/08/26 00:34:44;;;;;;;14.10;7.68;;;;;;;;;;6149397;23;20173;-93
2023/08/26 00:37:51;;;;;;;15.68;8.18;;;;;;;;;;6148064;23;20192;-89
2023/08/26 00:40:56;;;;;;;20.02;9.65;;;;;;;;;;6149473;23;20221;-90
2023/08/26 00:44:01;;;;;;;11.27;7.88;;;;;;;;;;6148309;23;20172;-88
2023/08/26 00:47:08;;;;;;;12.40;8.40;;;;;;;;;;6147907;23;20192;-90
2023/08/26 00:50:13;;;;;;;16.90;8.50;;;;;;;;;;6148892;23;20240;-89
2023/08/26 00:53:18;;;;;;;14.85;9.27;;;;;;;;;;6147203;23;20173;-91
2023/08/26 00:56:24;;;;;;;18.98;9.80;;;;;;;;;;6148877;23;20177;-88
2023/08/26 00:59:30;;;;;;;17.13;9.43;;;;;;;;;;6149046;23;20168;-93
2023/08/26 01:02:37;;;;;;;19.35;9.85;;;;;;;;;;6147885;23;20301;-91
2023/08/26 01:05:42;;;;;;;15.85;9.23;;;;;;;;;;6150175;23;20164;-91
2023/08/26 01:08:47;;;;;;;13.55;9.85;;;;;;;;;;6147886;23;20165;-92
2023/08/26 01:11:59;;;;;;;21.88;10.57;;;;;;;;;;6148196;23;20525;-92
2023/08/26 01:15:07;;;;;;;21.00;10.25;;;;;;;;;;6149196;23;20260;-88
2023/08/26 01:18:15;;;;;;;15.82;10.23;;;;;;;;;;6149194;23;20279;-91
2023/08/26 01:21:23;;;;;;;18.00;10.52;;;;;;;;;;6149692;23;20173;-90
2023/08/26 01:24:30;;;;;;;19.48;10.07;;;;;;;;;;6166500;23;20181;-89
2023/08/26 01:27:35;;;;;;;22.27;11.75;;;;;;;;;;6147723;23;20244;-88
2023/08/26 01:30:41;;;;;;;20.80;11.85;;;;;;;;;;6148468;23;20172;-89
2023/08/26 01:33:48;;;;;;;18.90;11.65;;;;;;;;;;6149600;23;20185;-93
2023/08/26 01:36:57;;;;;;;16.45;11.02;;;;;;;;;;6148546;23;20168;-93
2023/08/26 01:40:06;;;;;;;15.77;10.95;;;;;;;;;;6147166;23;20168;-92
2023/08/26 01:43:11;;;;;;;16.00;10.13;;;;;;;;;;6147956;23;20209;-89
2023/08/26 01:46:18;;;;;;;18.40;10.55;;;;;;;;;;6147665;23;20152;-89
2023/08/26 01:49:24;;;;;;;17.00;10.93;;;;;;;;;;6149274;23;20176;-89
2023/08/26 01:52:29;;;;;;;16.85;10.70;;;;;;;;;;6148489;23;20165;-88
2023/08/26 01:55:35;;;;;;;15.82;10.60;;;;;;;;;;6147512;23;20170;-92
2023/08/26 01:58:41;;;;;;;18.33;10.90;;;;;;;;;;6149112;23;20181;-90
2023/08/26 02:01:46;;;;;;;17.20;10.73;;;;;;;;;;6165132;23;20176;-88
2023/08/26 02:04:51;;;;;;;19.85;11.20;;;;;;;;;;6148419;23;20176;-91
2023/08/26 02:07:56;;;;;;;20.42;11.73;;;;;;;;;;6149893;23;20199;-90
2023/08/26 02:11:03;;;;;;;19.25;11.43;;;;;;;;;;6150071;23;20618;-88
2023/08/26 02:14:08;;;;;;;18.23;11.27;;;;;;;;;;6165626;23;20204;-88
2023/08/26 02:17:13;;;;;;;18.63;12.32;;;;;;;;;;6149168;23;20252;-88
2023/08/26 02:20:18;;;;;;;18.20;10.80;;;;;;;;;;6150186;23;20217;-87
2023/08/26 02:23:24;;;;;;;19.20;10.48;;;;;;;;;;6149810;23;20168;-89
2023/08/26 02:26:30;;;;;;;19.85;10.93;;;;;;;;;;6149701;23;20551;-89
2023/08/26 02:29:35;;;;;;;16.58;10.98;;;;;;;;;;6148953;23;20181;-90
2023/08/26 02:32:41;;;;;;;19.33;10.68;;;;;;;;;;6148082;23;20180;-88
2023/08/26 02:35:49;;;;;;;19.17;10.60;;;;;;;;;;6147555;23;20724;-88
2023/08/26 02:38:54;;;;;;;18.70;10.50;;;;;;;;;;6148938;23;20188;-91
2023/08/26 02:42:00;;;;;;;15.70;10.45;;;;;;;;;;6148766;23;20168;-90
2023/08/26 02:45:09;;;;;;;18.15;10.38;;;;;;;;;;6146984;23;20172;-89
2023/08/26 02:48:14;;;;;;;21.23;10.45;;;;;;;;;;6147709;23;20176;-90
2023/08/26 02:51:19;;;;;;;17.48;10.55;;;;;;;;;;6147278;23;20168;-90
2023/08/26 02:54:24;;;;;;;16.58;10.80;;;;;;;;;;6149067;23;20151;-90
2023/08/26 02:57:31;;;;;;;18.10;10.27;;;;;;;;;;6149153;23;20172;-89
2023/08/26 03:00:38;;;;;;;19.42;10.32;;;;;;;;;;6148008;23;20164;-93
2023/08/26 03:03:43;;;;;;;16.00;10.55;;;;;;;;;;6149012;23;20223;-88
2023/08/26 03:06:49;;;;;;;18.63;9.95;;;;;;;;;;6148094;23;20240;-89
2023/08/26 03:09:54;;;;;;;16.05;9.93;;;;;;;;;;6149880;23;20292;-91
2023/08/26 03:13:02;;;;;;;17.95;11.00;;;;;;;;;;6150336;23;20187;-91
2023/08/26 03:16:08;;;;;;;17.33;10.40;;;;;;;;;;6149052;23;20177;-88
2023/08/26 03:19:13;;;;;;;19.42;10.27;;;;;;;;;;6150643;23;20192;-88
2023/08/26 03:22:22;;;;;;;17.08;10.38;;;;;;;;;;6150492;23;20663;-89
2023/08/26 03:25:29;;;;;;;17.75;10.70;;;;;;;;;;6166450;23;20168;-90
2023/08/26 03:28:37;;;;;;;16.33;10.85;;;;;;;;;;6149588;23;20247;-89
2023/08/26 03:31:45;;;;;;;15.90;10.07;;;;;;;;;;6149583;23;20378;-89
2023/08/26 03:34:54;;;;;;;14.60;9.63;;;;;;;;;;6148491;23;20242;-88
2023/08/26 03:37:59;;;;;;;18.48;9.95;;;;;;;;;;6148830;23;20531;-89
2023/08/26 03:41:05;;;;;;;20.02;10.77;;;;;;;;;;6148351;23;20233;-91
2023/08/26 03:44:11;;;;;;;18.13;9.25;;;;;;;;;;6148898;23;20168;-91
2023/08/26 03:47:16;;;;;;;14.75;10.07;;;;;;;;;;6148713;23;20237;-89
2023/08/26 03:50:22;;;;;;;18.15;10.30;;;;;;;;;;6147278;23;20176;-87
2023/08/26 03:53:28;;;;;;;20.88;9.43;;;;;;;;;;6167001;23;20176;-88
2023/08/26 03:56:33;;;;;;;12.38;8.48;;;;;;;;;;6149090;23;20168;-89
2023/08/26 03:59:39;;;;;;;16.02;9.55;;;;;;;;;;6149203;23;20165;-88
2023/08/26 04:02:43;;;;;;;18.83;9.30;;;;;;;;;;6149652;23;20168;-91
2023/08/26 04:05:48;;;;;;;14.25;9.23;;;;;;;;;;6147738;23;20169;-87
2023/08/26 04:08:53;;;;;;;17.30;9.82;;;;;;;;;;6149234;23;20226;-91
2023/08/26 04:11:58;;;;;;;15.10;9.85;;;;;;;;;;6165752;23;20296;-91
2023/08/26 04:15:07;;;;;;;13.35;8.98;;;;;;;;;;6146251;23;20244;-92
2023/08/26 04:18:12;;;;;;;16.10;9.30;;;;;;;;;;6147799;23;20165;-92
2023/08/26 04:21:17;;;;;;;15.05;9.48;;;;;;;;;;6147789;23;20169;-91
2023/08/26 04:24:22;;;;;;;18.52;9.68;;;;;;;;;;6147572;23;20216;-90
2023/08/26 04:27:27;;;;;;;15.80;9.60;;;;;;;;;;6147251;23;20251;-91
2023/08/26 04:30:34;;;;;;;20.00;9.68;;;;;;;;;;6145725;23;20507;-89
2023/08/26 04:33:39;;;;;;;15.57;9.63;;;;;;;;;;6148949;23;20172;-89
2023/08/26 04:36:44;;;;;;;17.38;10.18;;;;;;;;;;6149506;23;20664;-90
2023/08/26 04:39:50;;;;;;;15.18;9.80;;;;;;;;;;6146841;23;20184;-91
2023/08/26 04:42:55;;;;;;;13.48;8.80;;;;;;;;;;6148883;23;20212;-88
2023/08/26 04:46:02;;;;;;;14.88;9.48;;;;;;;;;;6146556;23;20168;-88
2023/08/26 04:49:07;;;;;;;18.20;10.13;;;;;;;;;;6147241;23;20193;-91
2023/08/26 04:52:12;;;;;;;18.48;9.57;;;;;;;;;;6148585;23;20212;-88
2023/08/26 04:55:17;;;;;;;17.58;10.00;;;;;;;;;;6163299;23;20244;-87
2023/08/26 04:58:22;;;;;;;22.48;11.20;;;;;;;;;;6149081;23;20204;-90
2023/08/26 05:01:28;;;;;;;22.58;10.52;;;;;;;;;;6148673;23;20168;-88
2023/08/26 05:04:34;;;;;;;19.27;10.35;;;;;;;;;;6148469;23;20239;-89
2023/08/26 05:07:39;;;;;;;14.75;9.13;;;;;;;;;;6150282;23;20196;-90
2023/08/26 05:10:44;;;;;;;12.95;9.15;;;;;;;;;;6146296;23;20240;-92
2023/08/26 05:13:49;;;;;;;15.60;9.38;;;;;;;;;;6147991;23;20196;-89
2023/08/26 05:16:57;;;;;;;18.80;9.10;;;;;;;;;;6164391;23;20222;-90
2023/08/26 05:20:02;;;;;;;15.02;8.30;;;;;;;;;;6165013;23;20176;-90
2023/08/26 05:23:07;;;;;;;14.43;7.88;;;;;;;;;;6147328;23;20292;-91
2023/08/26 05:26:12;;;;;;;16.95;9.45;;;;;;;;;;6148458;23;20229;-90
2023/08/26 05:29:17;;;;;;;17.42;8.70;;;;;;;;;;6165171;23;20192;-92
2023/08/26 05:32:26;;;;;;;17.15;7.80;;;;;;;;;;6149073;23;20269;-90
2023/08/26 05:35:31;;;;;;;15.40;7.80;;;;;;;;;;6150513;23;20310;-90
2023/08/26 05:38:36;;;;;;;16.67;7.47;;;;;;;;;;6150576;23;20284;-90
2023/08/26 05:41:41;;;;;;;3.58;1.92;;;;;;;;;;6150358;23;20168;-89
2023/08/26 05:44:48;;;;;;;2.83;1.50;;;;;;;;;;6165891;23;20169;-89
2023/08/26 05:47:55;;;;;;;1.25;1.20;;;;;;;;;;6149601;23;20164;-90
2023/08/26 05:51:00;;;;;;;4.03;1.08;;;;;;;;;;6149975;23;20243;-91
2023/08/26 05:54:09;;;;;;;3.72;2.03;;;;;;;;;;6148677;23;20172;-91
2023/08/26 05:57:14;;;;;;;1.15;1.05;;;;;;;;;;6165663;23;20672;-91
2023/08/26 06:00:19;;;;;;;4.70;2.05;;;;;;;;;;6148444;23;20168;-89
2023/08/26 06:03:29;;;;;;;2.03;1.17;;;;;;;;;;6149876;23;20152;-90
2023/08/26 06:06:36;;;;;;;0.82;0.82;;;;;;;;;;6150107;23;20172;-88
2023/08/26 06:09:41;;;;;;;1.30;1.20;;;;;;;;;;6149700;23;20196;-89
2023/08/26 06:12:46;;;;;;;1.73;1.60;;;;;;;;;;6164617;23;20192;-90
2023/08/26 06:15:57;;;;;;;1.15;0.98;;;;;;;;;;6146456;23;20204;-90
2023/08/26 06:19:05;;;;;;;1.75;0.85;;;;;;;;;;6148447;23;20165;-89
2023/08/26 06:22:10;;;;;;;2.13;1.58;;;;;;;;;;6148400;23;20172;-89
2023/08/26 06:25:15;;;;;;;1.50;1.40;;;;;;;;;;6147351;23;20272;-90
2023/08/26 06:28:20;;;;;;;0.90;0.90;;;;;;;;;;6148514;23;20537;-91
2023/08/26 06:31:26;;;;;;;1.00;0.98;;;;;;;;;;6148371;23;20675;-88
2023/08/26 06:34:34;;;;;;;1.52;1.10;;;;;;;;;;6149595;23;20225;-90
2023/08/26 06:37:39;;;;;;;2.35;1.77;;;;;;;;;;6149417;23;20244;-91
2023/08/26 06:40:44;;;;;;;0.80;0.68;;;;;;;;;;6149645;23;20172;-90
2023/08/26 06:43:49;;;;;;;0.75;0.75;;;;;;;;;;6150932;23;20164;-89
2023/08/26 06:47:01;;;;;;;0.70;0.70;;;;;;;;;;6149623;23;20180;-90
2023/08/26 06:50:09;;;;;;;1.55;1.30;;;;;;;;;;6150986;23;20276;-91
2023/08/26 06:53:20;;;;;;;1.10;0.68;;;;;;;;;;6150854;23;20184;-89
2023/08/26 06:56:25;;;;;;;0.43;0.43;;;;;;;;;;6153216;23;20612;-90
2023/08/26 06:59:30;;;;;;;0.70;0.70;;;;;;;;;;6152965;23;20668;-92
2023/08/26 07:02:36;;;;;;;0.70;0.70;;;;;;;;;;6150994;23;20152;-92
2023/08/26 07:05:45;;;;;;;0.88;0.85;;;;;;;;;;6152686;23;20148;-91
2023/08/26 07:08:51;;;;;;;1.13;0.90;;;;;;;;;;6153805;23;20293;-91
2023/08/26 07:11:56;;;;;;;0.57;0.57;;;;;;;;;;6151223;23;20638;-89
2023/08/26 07:15:01;;;;;;;4.95;0.95;;;;;;;;;;6149787;23;20240;-88
2023/08/26 07:18:07;;;;;;;0.68;0.68;;;;;;;;;;6150786;23;20176;-90
2023/08/26 07:21:13;;;;;;;0.85;0.85;;;;;;;;;;6149623;23;20230;-91
2023/08/26 07:24:19;;;;;;;1.27;1.17;;;;;;;;;;6151680;23;20168;-92
2023/08/26 07:27:24;;;;;;;0.88;0.88;;;;;;;;;;6168899;23;20172;-90
2023/08/26 07:30:32;;;;;;;0.68;0.68;;;;;;;;;;6148788;23;20181;-89
2023/08/26 07:33:38;;;;;;;1.48;0.70;;;;;;;;;;6151485;23;20176;-90
2023/08/26 07:36:44;;;;;;;5.38;1.67;;;;;;;;;;6150749;23;20172;-91
2023/08/26 07:39:50;;;;;;;2.28;1.15;;;;;;;;;;6150419;23;20157;-90
2023/08/26 07:42:56;;;;;;;0.60;0.60;;;;;;;;;;6150443;23;20253;-92
2023/08/26 07:46:01;;;;;;;2.35;0.93;;;;;;;;;;6148419;23;20164;-93
2023/08/26 07:49:06;;;;;;;0.40;0.40;;;;;;;;;;6149977;23;20200;-89
2023/08/26 07:52:13;;;;;;;0.68;0.68;;;;;;;;;;6147969;23;20168;-89
2023/08/26 07:55:19;;;;;;;1.25;0.90;;;;;;;;;;6166909;23;20213;-90
2023/08/26 07:58:24;;;;;;;0.45;0.45;;;;;;;;;;6149409;23;20263;-89
2023/08/26 08:01:29;;;;;;;0.60;0.60;;;;;;;;;;6148397;23;20172;-91
2023/08/26 08:04:34;;;;;;;0.52;0.52;;;;;;;;;;6149290;23;20655;-93
2023/08/26 08:07:41;;;;;;;0.45;0.45;;;;;;;;;;6149709;23;20228;-91
2023/08/26 08:10:49;;;;;;;0.77;0.77;;;;;;;;;;6151152;23;20216;-90
2023/08/26 08:13:55;;;;;;;0.70;0.70;;;;;;;;;;6147928;23;20227;-91
2023/08/26 08:17:00;;;;;;;0.50;0.50;;;;;;;;;;6149579;23;20152;-92
2023/08/26 08:20:06;;;;;;;4.20;1.33;;;;;;;;;;6150181;23;20153;-91
2023/08/26 08:23:12;;;;;;;0.50;0.50;;;;;;;;;;6151636;23;20233;-91
2023/08/26 08:26:17;;;;;;;0.50;0.50;;;;;;;;;;6150772;23;20212;-90
2023/08/26 08:29:24;;;;;;;1.25;0.90;;;;;;;;;;6133367;23;20184;-90
2023/08/26 08:32:29;;;;;;;0.70;0.70;;;;;;;;;;6146190;23;20194;-94
2023/08/26 08:35:34;;;;;;;1.55;0.50;;;;;;;;;;6151563;23;20176;-91
2023/08/26 08:38:42;;;;;;;1.08;0.73;;;;;;;;;;6148560;23;20176;-93
2023/08/26 08:41:50;;;;;;;0.70;0.70;;;;;;;;;;6147629;23;20548;-92
2023/08/26 08:44:56;;;;;;;2.78;0.80;;;;;;;;;;6148855;23;20177;-91
2023/08/26 08:48:01;;;;;;;0.30;0.30;;;;;;;;;;6151281;23;20213;-92
2023/08/26 08:51:07;;;;;;;0.20;0.20;;;;;;;;;;6152096;23;20256;-91
2023/08/26 08:54:14;;;;;;;2.05;0.63;;;;;;;;;;6151173;23;20168;-90
2023/08/26 08:57:21;;;;;;;0.40;0.40;;;;;;;;;;6156300;23;20212;-91
2023/08/26 09:00:27;;;;;;;1.38;0.60;;;;;;;;;;6154547;23;20156;-89
2023/08/26 09:03:33;;;;;;;0.50;0.50;;;;;;;;;;6154707;23;20172;-90
2023/08/26 09:06:39;;;;;;;0.47;0.32;;;;;;;;;;6155661;23;20576;-91
2023/08/26 09:09:45;;;;;;;1.45;0.77;;;;;;;;;;6154269;23;20269;-91
2023/08/26 09:12:50;;;;;;;5.60;2.63;;;;;;;;;;6155294;23;20262;-89
2023/08/26 09:15:56;;;;;;;3.38;2.30;;;;;;;;;;6155682;23;20283;-90
2023/08/26 09:19:02;;;;;;;2.85;2.25;;;;;;;;;;6156937;23;20171;-90
2023/08/26 09:22:09;;;;;;;4.50;2.65;;;;;;;;;;6157002;23;20239;-91
2023/08/26 09:25:17;;;;;;;4.75;2.78;;;;;;;;;;6157273;23;20219;-93
2023/08/26 09:28:23;;;;;;;3.72;2.47;;;;;;;;;;6157163;23;20175;-92
2023/08/26 09:31:34;;;;;;;2.92;2.35;;;;;;;;;;6157590;23;20151;-92
2023/08/26 09:34:39;;;;;;;4.53;2.47;;;;;;;;;;6158956;23;20291;-90
2023/08/26 09:37:45;;;;;;;5.95;2.30;;;;;;;;;;6159297;23;20167;-93
2023/08/26 09:40:56;;;;;;;2.92;1.90;;;;;;;;;;6157735;23;20500;-93
2023/08/26 09:44:02;;;;;;;7.05;2.10;;;;;;;;;;6157441;23;20168;-89
2023/08/26 09:47:07;;;;;;;5.35;2.35;;;;;;;;;;6157972;23;20168;-90
2023/08/26 09:50:13;;;;;;;3.95;2.13;;;;;;;;;;6157569;23;20268;-90
2023/08/26 09:53:32;;;;;;;6.32;2.85;;;;;;;;;;6158410;23;20356;-93
2023/08/26 09:56:40;;;;;;;7.63;2.80;;;;;;;;;;6139765;23;20155;-95
2023/08/26 09:59:47;;;;;;;4.13;2.45;;;;;;;;;;6158082;23;20209;-92
2023/08/26 10:02:57;;;;;;;5.82;1.90;;;;;;;;;;6158038;23;20168;-92
2023/08/26 10:06:03;;;;;;;3.50;2.33;;;;;;;;;;6159542;23;20171;-90
2023/08/26 10:09:09;;;;;;;3.75;2.15;;;;;;;;;;6159516;23;20687;-92
2023/08/26 10:12:19;;;;;;;3.78;2.00;;;;;;;;;;6159715;23;20267;-90
2023/08/26 10:15:25;;;;;;;4.50;2.10;;;;;;;;;;6158736;23;20205;-90
2023/08/26 10:18:39;;;;;;;2.97;2.17;;;;;;;;;;6157673;23;20196;-92
2023/08/26 10:21:49;;;;;;;5.10;2.00;;;;;;;;;;6157372;23;20168;-92
2023/08/26 10:24:55;;;;;;;4.72;1.83;;;;;;;;;;6157862;23;20176;-91
2023/08/26 10:28:04;;;;;;;4.00;2.30;;;;;;;;;;6157365;23;20171;-94
2023/08/26 10:31:09;;;;;;;4.13;2.15;;;;;;;;;;6156889;23;20269;-91
2023/08/26 10:34:15;;;;;;;5.28;1.98;;;;;;;;;;6156078;23;20171;-91
2023/08/26 10:37:22;;;;;;;4.05;2.33;;;;;;;;;;6157799;23;20169;-93
2023/08/26 10:40:33;;;;;;;3.05;2.30;;;;;;;;;;6156893;23;20212;-93
2023/08/26 10:43:52;;;;;;;5.55;2.40;;;;;;;;;;6158008;23;20172;-93
2023/08/26 10:46:57;;;;;;;4.72;2.25;;;;;;;;;;6158386;23;20164;-93
2023/08/26 10:50:22;;;;;;;3.55;2.33;;;;;;;;;;6156223;23;20518;-90
2023/08/26 10:53:27;;;;;;;4.47;2.47;;;;;;;;;;6156487;23;20168;-93
2023/08/26 10:56:39;;;;;;;6.05;2.35;;;;;;;;;;6157971;23;20207;-93
2023/08/26 10:59:47;;;;;;;6.18;2.38;;;;;;;;;;6155557;23;20595;-93
2023/08/26 11:02:54;;;;;;;2.83;2.00;;;;;;;;;;6156660;23;20154;-91
2023/08/26 11:06:05;;;;;;;5.60;2.55;;;;;;;;;;6157142;23;20168;-92
2023/08/26 11:09:11;;;;;;;3.53;1.88;;;;;;;;;;6157206;23;20159;-92
2023/08/26 11:12:27;;;;;;;3.50;2.17;;;;;;;;;;6156563;23;20191;-91
2023/08/26 11:15:38;;;;;;;7.05;2.67;;;;;;;;;;6158845;23;20169;-92
2023/08/26 11:18:43;;;;;;;5.00;2.70;;;;;;;;;;6156341;23;20167;-92
2023/08/26 11:21:49;;;;;;;4.90;2.13;;;;;;;;;;6156295;23;20160;-93
2023/08/26 11:24:54;;;;;;;3.45;2.08;;;;;;;;;;6156755;23;20168;-90
2023/08/26 11:28:04;;;;;;;4.75;2.33;;;;;;;;;;6156885;23;20164;-91
2023/08/26 11:31:22;;;;;;;2.80;2.25;;;;;;;;;;6156598;23;20199;-91
2023/08/26 11:34:27;;;;;;;3.63;1.95;;;;;;;;;;6155763;23;20167;-90
2023/08/26 11:37:35;;;;;;;2.92;2.10;;;;;;;;;;6156537;23;20159;-92
2023/08/26 11:40:41;;;;;;;7.70;2.30;;;;;;;;;;6157895;23;20192;-92
2023/08/26 11:43:46;;;;;;;6.35;2.20;;;;;;;;;;6156842;23;20613;-92
2023/08/26 11:46:56;;;;;;;6.25;2.28;;;;;;;;;;6157244;23;20167;-90
2023/08/26 11:50:03;;;;;;;3.00;2.38;;;;;;;;;;6156461;23;20639;-90
2023/08/26 11:53:12;;;;;;;3.97;2.67;;;;;;;;;;6157294;23;20167;-92
2023/08/26 11:56:18;;;;;;;4.15;2.08;;;;;;;;;;6158173;23;20192;-93
2023/08/26 11:59:23;;;;;;;4.30;2.28;;;;;;;;;;6157704;23;20164;-90
2023/08/26 12:02:37;;;;;;;6.35;2.20;;;;;;;;;;6157646;23;20167;-90
2023/08/26 12:05:45;;;;;;;3.85;2.38;;;;;;;;;;6158901;23;20188;-91
2023/08/26 12:08:52;;;;;;;5.80;2.53;;;;;;;;;;6157617;23;20188;-91
2023/08/26 12:11:58;;;;;;;5.38;2.50;;;;;;;;;;6175608;23;20238;-90
2023/08/26 12:15:07;;;;;;;3.95;2.75;;;;;;;;;;6156470;23;20239;-90
2023/08/26 12:18:14;;;;;;;4.63;3.00;;;;;;;;;;6155196;23;20160;-90
2023/08/26 12:21:24;;;;;;;5.90;2.58;;;;;;;;;;6156608;23;20171;-89
2023/08/26 12:24:30;;;;;;;5.55;2.58;;;;;;;;;;6156251;23;20163;-91
2023/08/26 12:27:42;;;;;;;3.83;2.70;;;;;;;;;;6155909;23;20220;-93
2023/08/26 12:30:49;;;;;;;4.95;2.67;;;;;;;;;;6173519;23;20235;-93
2023/08/26 12:34:09;;;;;;;3.63;2.45;;;;;;;;;;6156884;23;20195;-91
2023/08/26 12:37:16;;;;;;;3.85;2.33;;;;;;;;;;6158547;23;20167;-91
2023/08/26 12:40:21;;;;;;;4.80;2.10;;;;;;;;;;6155489;23;20241;-92
2023/08/26 12:43:28;;;;;;;5.22;2.67;;;;;;;;;;6156244;23;20237;-92
2023/08/26 12:46:35;;;;;;;5.40;2.78;;;;;;;;;;6156706;23;20163;-91
2023/08/26 12:49:40;;;;;;;8.95;2.95;;;;;;;;;;6155288;23;20167;-92
2023/08/26 12:52:54;;;;;;;6.97;2.70;;;;;;;;;;6155556;23;20225;-92
2023/08/26 12:56:01;;;;;;;3.85;2.55;;;;;;;;;;6172941;23;20236;-91
2023/08/26 12:59:10;;;;;;;5.03;2.80;;;;;;;;;;6155056;23;20207;-92
2023/08/26 13:02:15;;;;;;;4.20;2.90;;;;;;;;;;6151140;23;20249;-89
2023/08/26 13:05:20;;;;;;;6.80;2.80;;;;;;;;;;6149783;23;20215;-93
2023/08/26 13:08:27;;;;;;;5.38;2.60;;;;;;;;;;6150240;23;20167;-91
2023/08/26 13:11:33;;;;;;;4.85;2.42;;;;;;;;;;6148473;23;20208;-94
2023/08/26 13:14:38;;;;;;;4.35;2.47;;;;;;;;;;6150664;23;20167;-93
2023/08/26 13:17:44;;;;;;;3.90;2.70;;;;;;;;;;6147418;23;20470;-91
2023/08/26 13:20:50;;;;;;;4.22;2.60;;;;;;;;;;6149929;23;20147;-93
2023/08/26 13:24:10;;;;;;;3.42;2.65;;;;;;;;;;6149295;23;20612;-92
2023/08/26 13:27:16;;;;;;;4.15;2.45;;;;;;;;;;6147736;23;20171;-91
2023/08/26 13:30:21;;;;;;;5.65;2.72;;;;;;;;;;6149500;23;20187;-93
2023/08/26 13:33:26;;;;;;;5.20;2.80;;;;;;;;;;6147108;23;20239;-92
2023/08/26 13:36:32;;;;;;;5.82;3.60;;;;;;;;;;6149433;23;20168;-91
2023/08/26 13:39:37;;;;;;;6.53;3.20;;;;;;;;;;6148687;23;20167;-91
2023/08/26 13:42:43;;;;;;;5.38;2.70;;;;;;;;;;6147699;23;20164;-93
2023/08/26 13:45:49;;;;;;;6.03;2.55;;;;;;;;;;6166015;23;20156;-91
2023/08/26 13:48:53;;;;;;;8.30;2.70;;;;;;;;;;6148723;23;20287;-92
2023/08/26 13:51:58;;;;;;;5.32;2.88;;;;;;;;;;6150840;23;20196;-91
2023/08/26 13:55:05;;;;;;;6.60;3.00;;;;;;;;;;6154796;23;20247;-91
2023/08/26 13:58:14;;;;;;;7.85;3.28;;;;;;;;;;6151830;23;20203;-94
2023/08/26 14:01:20;;;;;;;6.78;3.60;;;;;;;;;;6169111;23;20205;-91
2023/08/26 14:04:25;;;;;;;5.35;3.35;;;;;;;;;;6153245;23;20538;-92
2023/08/26 14:07:31;;;;;;;6.53;3.17;;;;;;;;;;6152135;23;20457;-93
2023/08/26 14:10:40;;;;;;;7.93;3.60;;;;;;;;;;6152106;23;20195;-93
2023/08/26 14:13:47;;;;;;;4.50;2.88;;;;;;;;;;6152379;23;20216;-91
2023/08/26 14:16:53;;;;;;;6.07;3.45;;;;;;;;;;6152145;23;20167;-90
2023/08/26 14:19:58;;;;;;;6.43;3.25;;;;;;;;;;6152091;23;20180;-88
2023/08/26 14:23:03;;;;;;;6.18;2.97;;;;;;;;;;6152783;23;20228;-90
2023/08/26 14:26:11;;;;;;;5.53;3.25;;;;;;;;;;6151533;23;20281;-93
2023/08/26 14:29:20;;;;;;;4.70;3.00;;;;;;;;;;6151742;23;20217;-91
2023/08/26 14:32:25;;;;;;;5.70;3.00;;;;;;;;;;6151743;23;20758;-91
2023/08/26 14:35:30;;;;;;;5.25;3.17;;;;;;;;;;6170164;23;20236;-91
2023/08/26 14:38:36;;;;;;;7.68;2.80;;;;;;;;;;6151306;23;20184;-91
2023/08/26 14:41:42;;;;;;;5.25;3.08;;;;;;;;;;6153388;23;20179;-91
2023/08/26 14:44:49;;;;;;;6.05;3.90;;;;;;;;;;6153112;23;20195;-93
2023/08/26 14:47:56;;;;;;;5.10;3.10;;;;;;;;;;6152405;23;20199;-91
2023/08/26 14:51:02;;;;;;;6.95;3.38;;;;;;;;;;6151803;23;20194;-90
2023/08/26 14:54:07;;;;;;;6.63;3.42;;;;;;;;;;6151211;23;20216;-93
2023/08/26 14:57:12;;;;;;;7.70;3.55;;;;;;;;;;6150759;23;20168;-90
2023/08/26 15:00:20;;;;;;;6.20;3.17;;;;;;;;;;6151056;23;20156;-91
2023/08/26 15:03:25;;;;;;;5.20;3.42;;;;;;;;;;6150844;23;20243;-93
2023/08/26 15:06:31;;;;;;;7.18;3.03;;;;;;;;;;6167457;23;20176;-92
2023/08/26 15:09:36;;;;;;;10.52;3.63;;;;;;;;;;6151011;23;20173;-92
2023/08/26 15:12:45;;;;;;;9.23;3.60;;;;;;;;;;6150539;23;20179;-91
2023/08/26 15:15:52;;;;;;;7.18;3.60;;;;;;;;;;6150659;23;20248;-91
2023/08/26 15:18:57;;;;;;;8.18;3.75;;;;;;;;;;6150350;23;20164;-92
2023/08/26 15:22:02;;;;;;;5.85;3.75;;;;;;;;;;6151704;23;20168;-93
2023/08/26 15:25:08;;;;;;;7.82;3.70;;;;;;;;;;6149291;23;20177;-91
2023/08/26 15:28:15;;;;;;;7.57;3.50;;;;;;;;;;6149047;23;20168;-90
2023/08/26 15:31:22;;;;;;;8.00;3.70;;;;;;;;;;6153580;23;20200;-90
2023/08/26 15:34:29;;;;;;;5.72;3.67;;;;;;;;;;6153367;23;20217;-91
2023/08/26 15:37:34;;;;;;;9.70;3.80;;;;;;;;;;6151262;23;20604;-91
2023/08/26 15:40:40;;;;;;;9.23;4.63;;;;;;;;;;6150241;23;20247;-92
2023/08/26 15:43:45;;;;;;;7.55;4.10;;;;;;;;;;6149557;23;20152;-91
2023/08/26 15:46:52;;;;;;;10.75;3.67;;;;;;;;;;6167983;23;20304;-90
2023/08/26 15:49:56;;;;;;;8.88;3.95;;;;;;;;;;6148407;23;20168;-92
2023/08/26 15:53:02;;;;;;;11.00;4.07;;;;;;;;;;6168469;23;20176;-89
2023/08/26 15:56:07;;;;;;;8.63;3.88;;;;;;;;;;6151898;23;20196;-91
2023/08/26 15:59:12;;;;;;;9.50;4.40;;;;;;;;;;6150192;23;20219;-90
2023/08/26 16:02:21;;;;;;;7.45;4.03;;;;;;;;;;6152786;23;20168;-90
2023/08/26 16:05:27;;;;;;;10.52;4.80;;;;;;;;;;6154320;23;20212;-92
2023/08/26 16:08:32;;;;;;;7.78;4.70;;;;;;;;;;6152979;23;20168;-91
2023/08/26 16:11:37;;;;;;;7.75;4.00;;;;;;;;;;6152325;23;20251;-93
2023/08/26 16:14:43;;;;;;;6.55;3.80;;;;;;;;;;6153824;23;20153;-92
2023/08/26 16:17:50;;;;;;;7.90;4.30;;;;;;;;;;6153518;23;20152;-90
2023/08/26 16:20:59;;;;;;;10.35;3.72;;;;;;;;;;6153765;23;20169;-92
2023/08/26 16:24:14;;;;;;;11.40;4.03;;;;;;;;;;6129866;23;20200;-90
2023/08/26 16:27:20;;;;;;;8.75;3.90;;;;;;;;;;6151512;23;20226;-90
2023/08/26 16:30:25;;;;;;;9.25;4.20;;;;;;;;;;6167434;23;20228;-92
2023/08/26 16:33:33;;;;;;;7.97;4.20;;;;;;;;;;6152850;23;20168;-93
2023/08/26 16:36:38;;;;;;;7.72;4.32;;;;;;;;;;6152586;23;20172;-91
2023/08/26 16:39:43;;;;;;;7.70;4.40;;;;;;;;;;6151344;23;20164;-91
2023/08/26 16:42:50;;;;;;;7.75;4.38;;;;;;;;;;6153635;23;20176;-89
2023/08/26 16:45:55;;;;;;;9.35;4.78;;;;;;;;;;6150496;23;20168;-93
2023/08/26 16:49:02;;;;;;;4.00;1.25;;;;;;;;;;6149896;23;20145;-91
2023/08/26 16:52:08;;;;;;;0.90;0.90;;;;;;;;;;6150771;23;20313;-94
2023/08/26 16:55:13;;;;;;;1.70;1.60;;;;;;;;;;6152524;23;20181;-92
2023/08/26 16:58:18;;;;;;;1.17;1.10;;;;;;;;;;6150780;23;20161;-91
2023/08/26 17:01:23;;;;;;;0.43;0.43;;;;;;;;;;6148978;23;20251;-92
2023/08/26 17:04:29;;;;;;;0.43;0.43;;;;;;;;;;6152129;23;20256;-92
2023/08/26 17:11:03;;;;;;;0.80;0.57;;;;;;;;;;6152585;23;20241;-91
2023/08/26 17:14:09;;;;;;;1.40;0.90;;;;;;;;;;6135621;23;20177;-90
2023/08/26 17:17:15;;;;;;;0.38;0.38;;;;;;;;;;6151055;23;20500;-89
2023/08/26 17:20:22;;;;;;;1.85;0.63;;;;;;;;;;6169175;23;20367;-87
2023/08/26 17:23:27;;;;;;;0.93;0.60;;;;;;;;;;6153010;23;20171;-90
2023/08/26 17:26:32;;;;;;;1.00;0.65;;;;;;;;;;6154013;23;20183;-90
2023/08/26 17:29:38;;;;;;;0.82;0.82;;;;;;;;;;6154531;23;20217;-90
2023/08/26 17:32:47;;;;;;;2.72;1.65;;;;;;;;;;6152702;23;20196;-91
2023/08/26 17:39:31;;;;;;;1.00;0.85;;;;;;;;;;6153748;23;20205;-90
2023/08/26 17:42:39;;;;;;;0.80;0.60;;;;;;;;;;6153913;23;20168;-90
2023/08/26 17:45:45;;;;;;;1.27;1.20;;;;;;;;;;6173189;23;20165;-90
2023/08/26 17:48:51;;;;;;;0.20;0.20;;;;;;;;;;6154912;23;20289;-90
2023/08/26 17:51:56;;;;;;;0.73;0.63;;;;;;;;;;6154176;23;20196;-91
2023/08/26 17:55:04;;;;;;;0.20;0.20;;;;;;;;;;6151098;23;20152;-90
2023/08/26 17:58:09;;;;;;;0.85;0.63;;;;;;;;;;6151327;23;20169;-92
2023/08/26 18:01:14;;;;;;;0.20;0.20;;;;;;;;;;6150128;23;20260;-91
2023/08/26 18:04:19;;;;;;;0.43;0.35;;;;;;;;;;6151171;23;20289;-91
2023/08/26 18:07:25;;;;;;;0.32;0.32;;;;;;;;;;6153046;23;20247;-90
2023/08/26 18:10:32;;;;;;;0.30;0.30;;;;;;;;;;6152015;23;20180;-91
2023/08/26 18:13:37;;;;;;;0.60;0.60;;;;;;;;;;6151551;23;20180;-90
2023/08/26 18:16:43;;;;;;;0.30;0.30;;;;;;;;;;6152268;23;20244;-92
2023/08/26 18:19:48;;;;;;;0.60;0.60;;;;;;;;;;6148778;23;20171;-89
2023/08/26 18:22:54;;;;;;;0.22;0.22;;;;;;;;;;6149825;23;20261;-90
2023/08/26 18:26:01;;;;;;;0.43;0.43;;;;;;;;;;6150159;23;20194;-89
2023/08/26 18:29:07;;;;;;;0.20;0.20;;;;;;;;;;6149954;23;20173;-90
2023/08/26 18:32:13;;;;;;;0.40;0.40;;;;;;;;;;6151574;23;20197;-90
2023/08/26 18:35:18;;;;;;;0.22;0.22;;;;;;;;;;6149890;23;20164;-89
2023/08/26 18:38:23;;;;;;;0.20;0.20;;;;;;;;;;6149347;23;20216;-90